createdAt,value
2023-02-11T00:01:28.169Z,83.88
2023-02-11T00:03:56.950Z,86.50
2023-02-11T00:06:27.821Z,83.40
2023-02-11T00:08:55.873Z,82.30
2023-02-11T00:11:30.829Z,81.10
2023-02-11T00:14:02.146Z,89.30
2023-02-11T00:16:31.741Z,87.95
2023-02-11T00:19:01.054Z,88.28
2023-02-11T00:21:29.300Z,92.15
2023-02-11T00:23:59.827Z,90.82
2023-02-11T00:26:32.193Z,94.90
2023-02-11T00:29:00.869Z,86.85
2023-02-11T00:31:29.003Z,97.05
2023-02-11T00:33:56.342Z,100.75
2023-02-11T00:36:27.278Z,91.22
2023-02-11T00:38:56.962Z,98.40
2023-02-11T00:41:25.965Z,93.97
2023-02-11T00:43:53.740Z,99.25
2023-02-11T00:46:21.151Z,95.90
2023-02-11T00:48:48.963Z,93.95
2023-02-11T00:51:16.111Z,96.22
2023-02-11T00:53:43.696Z,107.45
2023-02-11T00:56:10.906Z,97.00
2023-02-11T00:58:38.060Z,102.13
2023-02-11T01:01:05.476Z,94.07
2023-02-11T01:03:32.617Z,93.18
2023-02-11T01:05:59.845Z,97.82
2023-02-11T01:08:27.163Z,100.70
2023-02-11T01:11:07.852Z,99.40
2023-02-11T01:13:37.277Z,99.75
2023-02-11T01:16:08.567Z,106.47
2023-02-11T01:18:36.682Z,97.63
2023-02-11T01:21:04.259Z,96.05
2023-02-11T01:23:31.546Z,95.72
2023-02-11T01:25:59.199Z,102.68
2023-02-11T01:28:29.892Z,103.78
2023-02-11T01:30:57.350Z,108.10
2023-02-11T01:33:24.701Z,106.10
2023-02-11T01:35:52.234Z,101.90
2023-02-11T01:38:25.820Z,97.28
2023-02-11T01:40:57.128Z,102.05
2023-02-11T01:43:27.395Z,114.32
2023-02-11T01:46:17.558Z,99.82
2023-02-11T01:48:51.734Z,108.72
2023-02-11T01:51:26.763Z,101.93
2023-02-11T01:54:14.542Z,112.32
2023-02-11T01:57:08.652Z,103.55
2023-02-11T02:00:01.902Z,105.65
2023-02-11T02:02:49.285Z,106.82
2023-02-11T02:05:51.764Z,107.63
2023-02-11T02:08:29.515Z,111.68
2023-02-11T02:11:00.468Z,103.88
2023-02-11T02:13:31.013Z,107.30
2023-02-11T02:16:03.201Z,115.93
2023-02-11T02:18:54.668Z,110.88
2023-02-11T02:22:05.651Z,115.40
2023-02-11T02:25:07.274Z,125.82
2023-02-11T02:28:02.545Z,122.20
2023-02-11T02:30:54.757Z,118.95
2023-02-11T02:33:56.373Z,123.47
2023-02-11T02:36:41.782Z,122.60
2023-02-11T02:39:24.358Z,128.85
2023-02-11T02:41:54.304Z,124.03
2023-02-11T02:44:21.755Z,124.65
2023-02-11T02:46:49.020Z,137.95
2023-02-11T02:49:17.872Z,139.13
2023-02-11T02:52:21.971Z,141.20
2023-02-11T02:55:41.857Z,133.52
2023-02-11T02:58:38.477Z,134.32
2023-02-11T03:01:52.029Z,134.07
2023-02-11T03:04:42.196Z,129.50
2023-02-11T03:07:26.081Z,132.50
2023-02-11T03:10:10.929Z,133.90
2023-02-11T03:12:41.929Z,137.60
2023-02-11T03:15:12.431Z,140.60
2023-02-11T03:17:45.715Z,134.07
2023-02-11T03:20:18.062Z,135.45
2023-02-11T03:23:16.890Z,139.18
2023-02-11T03:26:02.673Z,145.32
2023-02-11T03:28:40.674Z,141.57
2023-02-11T03:31:22.061Z,138.88
2023-02-11T03:34:04.676Z,140.77
2023-02-11T03:36:45.998Z,135.52
2023-02-11T03:39:22.566Z,142.25
2023-02-11T03:41:52.161Z,146.25
2023-02-11T03:44:22.882Z,142.82
2023-02-11T03:46:53.958Z,141.63
2023-02-11T03:49:27.634Z,138.77
2023-02-11T03:51:56.422Z,138.82
2023-02-11T03:54:30.269Z,146.00
2023-02-11T03:57:01.629Z,143.48
2023-02-11T03:59:29.223Z,135.02
2023-02-11T04:01:57.687Z,138.07
2023-02-11T04:04:25.108Z,136.57
2023-02-11T04:06:52.266Z,146.77
2023-02-11T04:09:19.570Z,134.98
2023-02-11T04:11:46.715Z,136.48
2023-02-11T04:14:13.847Z,137.38
2023-02-11T04:16:41.109Z,133.30
2023-02-11T04:19:08.586Z,139.52
2023-02-11T04:21:35.748Z,131.23
2023-02-11T04:24:03.048Z,143.60
2023-02-11T04:26:30.225Z,128.07
2023-02-11T04:28:57.375Z,132.23
2023-02-11T04:31:24.768Z,136.05
2023-02-11T04:33:52.083Z,137.30
2023-02-11T04:36:19.230Z,125.55
2023-02-11T04:38:46.477Z,137.70
2023-02-11T04:41:13.826Z,135.32
2023-02-11T04:43:40.957Z,129.10
2023-02-11T04:46:08.238Z,131.23
2023-02-11T04:48:35.769Z,131.38
2023-02-11T04:51:02.923Z,132.68
2023-02-11T04:53:30.062Z,133.98
2023-02-11T04:55:57.496Z,137.77
2023-02-11T04:58:24.644Z,132.45
2023-02-11T05:00:51.976Z,134.45
2023-02-11T05:03:19.182Z,130.55
2023-02-11T05:05:46.337Z,133.15
2023-02-11T05:08:13.503Z,138.25
2023-02-11T05:10:40.673Z,140.05
2023-02-11T05:13:07.843Z,134.35
2023-02-11T05:15:35.099Z,133.57
2023-02-11T05:18:02.253Z,146.00
2023-02-11T05:20:29.452Z,139.55
2023-02-11T05:22:56.603Z,129.63
2023-02-11T05:25:23.768Z,130.98
2023-02-11T05:27:50.928Z,132.57
2023-02-11T05:30:18.145Z,135.23
2023-02-11T05:32:45.292Z,125.93
2023-02-11T05:35:12.513Z,129.18
2023-02-11T05:37:40.048Z,132.00
2023-02-11T05:40:07.799Z,130.35
2023-02-11T05:42:35.059Z,129.45
2023-02-11T05:45:02.238Z,125.82
2023-02-11T05:47:29.404Z,131.43
2023-02-11T05:49:56.529Z,128.05
2023-02-11T05:52:24.234Z,130.45
2023-02-11T05:54:51.576Z,127.30
2023-02-11T05:57:18.734Z,123.43
2023-02-11T05:59:45.909Z,125.60
2023-02-11T06:02:13.449Z,128.07
2023-02-11T06:04:41.407Z,126.97
2023-02-11T06:07:08.620Z,127.10
2023-02-11T06:09:38.704Z,123.03
2023-02-11T06:12:06.008Z,120.85
2023-02-11T06:14:34.185Z,126.85
2023-02-11T06:17:01.731Z,120.18
2023-02-11T06:19:28.921Z,110.75
2023-02-11T06:21:56.374Z,115.10
2023-02-11T06:24:47.642Z,121.38
2023-02-11T06:27:11.363Z,111.93
2023-02-11T06:29:38.524Z,126.63
2023-02-11T06:32:05.892Z,119.65
2023-02-11T06:34:33.098Z,109.57
2023-02-11T06:37:00.223Z,116.00
2023-02-11T06:39:27.368Z,112.20
2023-02-11T06:41:54.871Z,112.30
2023-02-11T06:44:22.018Z,118.55
2023-02-11T06:46:49.250Z,116.13
2023-02-11T06:49:16.427Z,104.63
2023-02-11T06:51:43.557Z,107.55
2023-02-11T06:54:12.904Z,107.05
2023-02-11T06:56:41.725Z,111.28
2023-02-11T06:59:09.040Z,117.43
2023-02-11T07:01:36.223Z,109.85
2023-02-11T07:04:03.460Z,111.28
2023-02-11T07:06:30.595Z,113.60
2023-02-11T07:08:57.791Z,109.45
2023-02-11T07:11:28.416Z,111.07
2023-02-11T07:14:01.621Z,115.32
2023-02-11T07:16:28.919Z,99.18
2023-02-11T07:18:56.074Z,101.05
2023-02-11T07:21:24.322Z,101.72
2023-02-11T07:23:52.312Z,106.95
2023-02-11T07:26:23.434Z,99.28
2023-02-11T07:28:51.349Z,110.13
2023-02-11T07:31:26.536Z,98.80
2023-02-11T07:33:57.360Z,90.28
2023-02-11T07:36:24.774Z,103.93
2023-02-11T07:38:52.149Z,106.40
2023-02-11T07:41:22.869Z,101.00
2023-02-11T07:43:50.742Z,102.10
2023-02-11T07:46:23.117Z,100.18
2023-02-11T07:48:50.589Z,100.15
2023-02-11T07:51:22.645Z,106.35
2023-02-11T07:53:50.552Z,104.40
2023-02-11T07:56:20.202Z,99.40
2023-02-11T07:58:48.315Z,99.28
2023-02-11T08:01:20.095Z,105.07
2023-02-11T08:03:47.340Z,103.10
2023-02-11T08:06:17.576Z,100.22
2023-02-11T08:08:44.882Z,93.25
2023-02-11T08:11:19.770Z,103.80
2023-02-11T08:13:47.479Z,100.78
2023-02-11T08:16:22.806Z,97.72
2023-02-11T08:18:51.524Z,95.45
2023-02-11T08:21:20.420Z,99.40
2023-02-11T08:23:47.908Z,96.13
2023-02-11T08:26:21.560Z,100.43
2023-02-11T08:28:51.232Z,101.45
2023-02-11T08:31:35.097Z,100.30
2023-02-11T08:34:02.832Z,100.40
2023-02-11T08:36:34.185Z,93.70
2023-02-11T08:39:18.685Z,95.47
2023-02-11T08:41:54.115Z,86.93
2023-02-11T08:44:22.798Z,89.60
2023-02-11T08:46:51.240Z,92.50
2023-02-11T08:49:19.065Z,100.00
2023-02-11T08:51:46.684Z,88.50
2023-02-11T08:54:14.425Z,97.07
2023-02-11T08:56:42.419Z,96.30
2023-02-11T08:59:15.372Z,92.05
2023-02-11T09:04:11.403Z,91.65
2023-02-11T09:06:39.015Z,88.63
2023-02-11T09:09:06.513Z,96.18
2023-02-11T09:11:35.882Z,91.70
2023-02-11T09:14:04.783Z,87.38
2023-02-11T09:16:36.305Z,92.70
2023-02-11T09:19:05.250Z,83.85
2023-02-11T09:21:32.608Z,97.07
2023-02-11T09:23:59.782Z,93.93
2023-02-11T09:26:33.441Z,96.07
2023-02-11T09:29:01.714Z,95.45
2023-02-11T09:31:31.738Z,92.90
2023-02-11T09:34:04.322Z,90.18
2023-02-11T09:36:37.411Z,97.35
2023-02-11T09:39:11.183Z,83.60
2023-02-11T09:42:06.229Z,90.90
2023-02-11T09:44:36.414Z,94.32
2023-02-11T09:47:19.432Z,88.47
2023-02-11T09:49:58.251Z,91.15
2023-02-11T09:52:44.577Z,95.82
2023-02-11T09:55:30.384Z,95.10
2023-02-11T09:57:58.669Z,90.07
2023-02-11T10:00:33.853Z,96.50
2023-02-11T10:03:25.381Z,90.70
2023-02-11T10:06:14.085Z,95.18
2023-02-11T10:09:11.419Z,97.57
2023-02-11T10:12:01.172Z,94.95
2023-02-11T10:14:57.652Z,81.03
2023-02-11T10:17:48.015Z,83.13
2023-02-11T10:20:35.536Z,70.68
2023-02-11T10:23:19.523Z,81.03
2023-02-11T10:25:54.431Z,83.20
2023-02-11T10:28:33.983Z,94.82
2023-02-11T10:31:39.866Z,89.88
2023-02-11T10:34:14.474Z,93.28
2023-02-11T10:36:44.850Z,91.22
2023-02-11T10:39:15.576Z,87.15
2023-02-11T10:41:50.307Z,88.60
2023-02-11T10:44:32.430Z,93.97
2023-02-11T10:47:10.751Z,98.55
2023-02-11T10:49:44.723Z,99.30
2023-02-11T10:52:23.835Z,97.68
2023-02-11T10:55:25.962Z,91.60
2023-02-11T10:57:59.206Z,86.80
2023-02-11T11:00:36.801Z,99.38
2023-02-11T11:03:19.426Z,102.72
2023-02-11T11:06:00.207Z,91.00
2023-02-11T11:08:51.692Z,100.07
2023-02-11T11:11:22.146Z,88.70
2023-02-11T11:13:52.279Z,87.72
2023-02-11T11:16:37.253Z,98.13
2023-02-11T11:19:07.306Z,91.97
2023-02-11T11:21:48.231Z,84.40
2023-02-11T11:24:22.218Z,99.07
2023-02-11T11:26:54.990Z,91.50
2023-02-11T11:29:52.067Z,100.63
2023-02-11T11:32:27.796Z,92.00
2023-02-11T11:34:59.894Z,89.60
2023-02-11T11:37:31.743Z,88.65
2023-02-11T11:40:03.059Z,83.15
2023-02-11T11:42:34.457Z,89.47
2023-02-11T11:45:15.160Z,84.95
2023-02-11T11:48:14.512Z,90.18
2023-02-11T11:50:59.854Z,82.20
2023-02-11T11:53:52.060Z,92.30
2023-02-11T11:56:34.468Z,85.95
2023-02-11T11:59:16.979Z,84.53
2023-02-11T12:02:28.410Z,82.25
2023-02-11T12:05:15.035Z,81.88
2023-02-11T12:08:38.246Z,80.05
2023-02-11T12:12:23.029Z,79.68
2023-02-11T12:15:04.989Z,83.63
2023-02-11T12:18:19.133Z,78.70
2023-02-11T12:21:13.649Z,78.07
2023-02-11T12:24:27.447Z,77.35
2023-02-11T12:27:21.622Z,79.60
2023-02-11T12:30:22.493Z,79.45
2023-02-11T12:33:37.145Z,72.15
2023-02-11T12:36:36.392Z,68.13
2023-02-11T12:39:27.260Z,67.53
2023-02-11T12:42:53.780Z,71.35
2023-02-11T12:46:01.394Z,70.38
2023-02-11T12:48:46.860Z,70.75
2023-02-11T12:51:36.157Z,72.32
2023-02-11T12:54:17.644Z,69.47
2023-02-11T12:57:26.476Z,63.20
2023-02-11T13:00:18.510Z,72.72
2023-02-11T13:03:05.913Z,67.60
2023-02-11T13:05:51.791Z,71.40
2023-02-11T13:08:32.890Z,64.28
2023-02-11T13:11:08.312Z,70.57
2023-02-11T13:13:52.359Z,70.55
2023-02-11T13:16:48.680Z,70.97
2023-02-11T13:19:38.027Z,62.08
2023-02-11T13:22:16.341Z,72.63
2023-02-11T13:25:08.022Z,74.78
2023-02-11T13:27:58.736Z,67.10
2023-02-11T13:30:36.842Z,62.42
2023-02-11T13:33:17.678Z,85.15
2023-02-11T13:35:56.679Z,70.18
2023-02-11T13:38:28.616Z,70.20
2023-02-11T13:41:24.801Z,62.65
2023-02-11T13:44:22.190Z,65.28
2023-02-11T13:47:04.637Z,67.75
2023-02-11T13:49:40.375Z,70.50
2023-02-11T13:52:27.295Z,77.45
2023-02-11T13:55:02.454Z,67.68
2023-02-11T13:57:34.235Z,65.45
2023-02-11T14:00:33.460Z,63.25
2023-02-11T14:03:31.183Z,68.00
2023-02-11T14:06:31.383Z,61.13
2023-02-11T14:09:01.255Z,64.32
2023-02-11T14:11:36.261Z,63.58
2023-02-11T14:14:26.414Z,61.58
2023-02-11T14:17:02.432Z,62.55
2023-02-11T14:19:45.541Z,64.05
2023-02-11T14:22:19.638Z,60.08
2023-02-11T14:24:59.169Z,63.95
2023-02-11T14:28:07.793Z,86.55
2023-02-11T14:30:48.806Z,85.68
2023-02-11T14:33:34.898Z,76.93
2023-02-11T14:36:27.551Z,70.85
2023-02-11T14:39:49.485Z,66.40
2023-02-11T14:42:22.875Z,69.95
2023-02-11T14:44:53.093Z,69.78
2023-02-11T14:47:29.404Z,66.00
2023-02-11T14:49:56.904Z,68.97
2023-02-11T14:52:34.365Z,69.60
2023-02-11T14:55:33.933Z,71.97
2023-02-11T14:58:31.365Z,63.22
2023-02-11T15:01:02.299Z,63.58
2023-02-11T15:03:38.659Z,67.38
2023-02-11T15:06:21.200Z,72.80
2023-02-11T15:08:53.474Z,69.82
2023-02-11T15:11:25.392Z,71.20
2023-02-11T15:13:55.452Z,71.60
2023-02-11T15:16:25.964Z,75.47
2023-02-11T15:19:03.798Z,80.38
2023-02-11T15:21:35.827Z,74.13
2023-02-11T15:24:20.460Z,68.90
2023-02-11T15:27:08.056Z,71.57
2023-02-11T15:29:39.922Z,70.35
2023-02-11T15:32:09.893Z,70.88
2023-02-11T15:34:37.463Z,71.82
2023-02-11T15:37:05.769Z,72.15
2023-02-11T15:39:40.443Z,75.30
2023-02-11T15:42:25.764Z,70.47
2023-02-11T15:45:28.916Z,71.35
2023-02-11T15:48:18.819Z,67.47
2023-02-11T15:51:25.069Z,71.50
2023-02-11T15:53:58.386Z,70.85
2023-02-11T15:56:43.067Z,70.85
2023-02-11T15:59:19.926Z,68.03
2023-02-11T16:01:49.054Z,71.20
2023-02-11T16:04:20.028Z,68.93
2023-02-11T16:06:48.115Z,75.20
2023-02-11T16:09:15.260Z,65.50
2023-02-11T16:11:48.191Z,67.32
2023-02-11T16:17:13.074Z,69.38
2023-02-11T16:19:50.684Z,69.15
2023-02-11T16:22:25.412Z,64.07
2023-02-11T16:24:56.503Z,64.55
2023-02-11T16:27:35.792Z,64.68
2023-02-11T16:30:04.381Z,67.70
2023-02-11T16:32:31.663Z,69.32
2023-02-11T16:35:01.347Z,74.75
2023-02-11T16:37:28.549Z,69.72
2023-02-11T16:39:56.696Z,77.45
2023-02-11T16:42:24.695Z,70.93
2023-02-11T16:44:51.836Z,73.45
2023-02-11T16:47:28.380Z,76.05
2023-02-11T16:49:56.333Z,74.65
2023-02-11T16:52:25.292Z,72.45
2023-02-11T16:54:53.310Z,76.25
2023-02-11T16:57:24.489Z,71.28
2023-02-11T16:59:52.870Z,71.80
2023-02-11T17:02:28.503Z,70.43
2023-02-11T17:05:00.258Z,69.05
2023-02-11T17:07:28.204Z,82.25
2023-02-11T17:09:56.478Z,76.45
2023-02-11T17:12:25.365Z,71.45
2023-02-11T17:14:54.039Z,76.35
2023-02-11T17:17:23.525Z,69.97
2023-02-11T17:19:51.223Z,76.07
2023-02-11T17:22:18.843Z,78.78
2023-02-11T17:24:46.018Z,69.82
2023-02-11T17:27:13.654Z,73.15
2023-02-11T17:29:41.179Z,72.68
2023-02-11T17:32:08.547Z,73.38
2023-02-11T17:34:35.848Z,72.80
2023-02-11T17:37:08.856Z,80.13
2023-02-11T17:42:06.126Z,73.65
2023-02-11T17:44:33.696Z,75.03
2023-02-11T17:47:00.890Z,79.65
2023-02-11T17:49:28.075Z,80.50
2023-02-11T17:51:55.258Z,82.57
2023-02-11T17:54:22.589Z,75.90
2023-02-11T17:56:50.779Z,79.97
2023-02-11T17:59:18.149Z,77.88
2023-02-11T18:01:45.500Z,84.60
2023-02-11T18:04:17.626Z,92.93
2023-02-11T18:06:45.712Z,85.83
2023-02-11T18:09:13.284Z,92.22
2023-02-11T18:11:41.775Z,83.75
2023-02-11T18:14:11.287Z,90.13
2023-02-11T18:16:40.360Z,85.07
2023-02-11T18:19:07.910Z,85.05
2023-02-11T18:21:35.793Z,87.95
2023-02-11T18:24:06.721Z,91.50
2023-02-11T18:26:36.111Z,87.75
2023-02-11T18:29:05.235Z,84.35
2023-02-11T18:31:33.879Z,87.93
2023-02-11T18:34:04.032Z,84.07
2023-02-11T18:36:31.507Z,90.90
2023-02-11T18:39:00.508Z,81.80
2023-02-11T18:41:28.051Z,86.72
2023-02-11T18:43:58.660Z,82.50
2023-02-11T18:46:25.925Z,83.65
2023-02-11T18:48:55.949Z,81.90
2023-02-11T18:51:24.125Z,79.13
2023-02-11T18:53:51.505Z,80.05
2023-02-11T18:56:22.950Z,96.95
2023-02-11T18:58:51.379Z,80.28
2023-02-11T19:01:29.679Z,86.53
2023-02-11T19:04:00.267Z,84.65
2023-02-11T19:06:30.502Z,80.97
2023-02-11T19:09:01.847Z,82.95
2023-02-11T19:11:47.634Z,77.28
2023-02-11T19:14:19.475Z,77.00
2023-02-11T19:16:47.544Z,84.63
2023-02-11T19:19:14.698Z,78.05
2023-02-11T19:21:44.826Z,74.03
2023-02-11T19:24:15.551Z,75.93
2023-02-11T19:26:43.128Z,84.60
2023-02-11T19:29:10.764Z,86.22
2023-02-11T19:31:38.909Z,78.22
2023-02-11T19:34:07.464Z,80.43
2023-02-11T19:36:35.060Z,81.53
2023-02-11T19:39:04.895Z,87.95
2023-02-11T19:41:33.651Z,84.72
2023-02-11T19:44:02.365Z,82.78
2023-02-11T19:46:36.922Z,75.30
2023-02-11T19:49:05.509Z,81.20
2023-02-11T19:51:35.578Z,86.97
2023-02-11T19:54:02.810Z,81.55
2023-02-11T19:56:29.977Z,76.78
2023-02-11T19:58:57.842Z,75.40
2023-02-11T20:01:26.180Z,79.05
2023-02-11T20:03:55.427Z,78.20
2023-02-11T20:06:28.045Z,74.07
2023-02-11T20:09:02.083Z,76.05
2023-02-11T20:11:31.459Z,70.72
2023-02-11T20:13:59.381Z,76.38
2023-02-11T20:16:45.128Z,75.20
2023-02-11T20:19:21.461Z,73.45
2023-02-11T20:21:53.192Z,73.97
2023-02-11T20:24:21.075Z,68.75
2023-02-11T20:26:49.276Z,72.18
2023-02-11T20:29:18.065Z,71.45
2023-02-11T20:31:46.050Z,71.22
2023-02-11T20:34:13.748Z,76.25
2023-02-11T20:36:41.382Z,72.40
2023-02-11T20:39:11.136Z,70.55
2023-02-11T20:41:39.865Z,77.57
2023-02-11T20:44:10.593Z,74.43
2023-02-11T20:46:41.043Z,67.93
2023-02-11T20:49:12.607Z,67.32
2023-02-11T20:51:40.504Z,73.85
2023-02-11T20:54:17.673Z,68.43
2023-02-11T20:56:48.050Z,78.32
2023-02-11T20:59:16.763Z,64.68
2023-02-11T21:01:48.402Z,67.00
2023-02-11T21:04:19.522Z,63.67
2023-02-11T21:06:50.636Z,63.80
2023-02-11T21:09:21.701Z,63.63
2023-02-11T21:11:51.791Z,61.97
2023-02-11T21:14:20.686Z,58.38
2023-02-11T21:16:49.277Z,58.67
2023-02-11T21:19:17.039Z,58.38
2023-02-11T21:21:44.970Z,62.63
2023-02-11T21:24:12.932Z,61.03
2023-02-11T21:26:40.367Z,62.65
2023-02-11T21:29:08.728Z,60.15
2023-02-11T21:31:37.678Z,59.20
2023-02-11T21:34:05.985Z,63.88
2023-02-11T21:36:36.967Z,58.80
2023-02-11T21:39:05.928Z,58.15
2023-02-11T21:41:35.044Z,54.50
2023-02-11T21:44:02.274Z,55.95
2023-02-11T21:46:29.702Z,54.47
2023-02-11T21:48:57.800Z,58.72
2023-02-11T21:51:27.088Z,56.42
2023-02-11T21:53:58.622Z,52.95
2023-02-11T21:56:28.985Z,44.78
2023-02-11T21:58:58.935Z,39.38
2023-02-11T22:01:32.158Z,36.92
2023-02-11T22:04:00.230Z,34.05
2023-02-11T22:06:31.855Z,41.30
2023-02-11T22:09:06.566Z,45.65
2023-02-11T22:11:34.535Z,39.42
2023-02-11T22:14:01.870Z,44.22
2023-02-11T22:16:30.205Z,42.47
2023-02-11T22:19:02.399Z,44.47
2023-02-11T22:21:30.562Z,43.57
2023-02-11T22:23:57.805Z,46.03
2023-02-11T22:26:27.928Z,45.85
2023-02-11T22:28:56.038Z,41.58
2023-02-11T22:31:30.616Z,37.88
2023-02-11T22:33:59.368Z,42.70
2023-02-11T22:36:36.703Z,42.17
2023-02-11T22:39:12.196Z,36.42
2023-02-11T22:41:42.487Z,36.63
2023-02-11T22:44:09.951Z,37.42
2023-02-11T22:46:38.539Z,36.70
2023-02-11T22:49:07.228Z,35.85
2023-02-11T22:51:34.806Z,40.25
2023-02-11T22:54:06.590Z,39.00
2023-02-11T22:56:35.970Z,32.25
2023-02-11T22:59:07.944Z,32.92
2023-02-11T23:01:35.701Z,34.88
2023-02-11T23:04:06.207Z,33.65
2023-02-11T23:06:34.530Z,32.47
2023-02-11T23:09:07.964Z,37.47
2023-02-11T23:11:36.095Z,33.67
2023-02-11T23:14:03.885Z,36.10
2023-02-11T23:16:34.549Z,36.17
2023-02-11T23:19:08.323Z,40.95
2023-02-11T23:21:38.582Z,40.60
2023-02-11T23:24:11.894Z,36.20
2023-02-11T23:26:41.221Z,37.83
2023-02-11T23:29:09.929Z,33.95
2023-02-11T23:31:43.897Z,34.95
2023-02-11T23:34:12.646Z,35.17
2023-02-11T23:36:39.882Z,31.25
2023-02-11T23:39:07.047Z,33.13
2023-02-11T23:41:34.755Z,34.35
2023-02-11T23:44:01.983Z,31.08
2023-02-11T23:46:29.309Z,29.30
2023-02-11T23:48:56.768Z,33.53
2023-02-11T23:51:24.191Z,30.20
2023-02-11T23:53:52.574Z,31.05
2023-02-11T23:56:24.016Z,29.00
2023-02-11T23:58:55.217Z,30.30
